sensor_id;sensor_type;location;lat;lon;timestamp;temperature;humidity
7048;DHT22;3565;53.254;10.352;2022-09-09T00:01:14;13.70;1.00
7048;DHT22;3565;53.254;10.352;2022-09-09T00:03:45;13.70;1.00
7048;DHT22;3565;53.254;10.352;2022-09-09T00:09:10;13.60;1.00
7048;DHT22;3565;53.254;10.352;2022-09-09T00:11:43;13.60;1.00
7048;DHT22;3565;53.254;10.352;2022-09-09T00:17:08;13.60;1.00
7048;DHT22;3565;53.254;10.352;2022-09-09T00:19:41;13.70;1.00
7048;DHT22;3565;53.254;10.352;2022-09-09T00:22:16;13.70;1.00
7048;DHT22;3565;53.254;10.352;2022-09-09T00:24:48;13.70;1.00
7048;DHT22;3565;53.254;10.352;2022-09-09T00:27:28;13.70;1.00
7048;DHT22;3565;53.254;10.352;2022-09-09T00:30:00;13.70;1.00
7048;DHT22;3565;53.254;10.352;2022-09-09T00:32:30;13.70;1.00
7048;DHT22;3565;53.254;10.352;2022-09-09T00:35:03;13.60;1.00
7048;DHT22;3565;53.254;10.352;2022-09-09T00:37:34;13.70;1.00
7048;DHT22;3565;53.254;10.352;2022-09-09T00:40:08;13.60;1.00
7048;DHT22;3565;53.254;10.352;2022-09-09T00:42:40;13.60;1.00
7048;DHT22;3565;53.254;10.352;2022-09-09T00:45:18;13.60;1.00
7048;DHT22;3565;53.254;10.352;2022-09-09T00:47:50;13.60;1.00
7048;DHT22;3565;53.254;10.352;2022-09-09T00:50:28;13.60;1.00
7048;DHT22;3565;53.254;10.352;2022-09-09T00:53:12;13.60;1.00
7048;DHT22;3565;53.254;10.352;2022-09-09T00:55:45;13.60;1.00
7048;DHT22;3565;53.254;10.352;2022-09-09T00:58:15;13.50;1.00
7048;DHT22;3565;53.254;10.352;2022-09-09T01:00:46;13.50;1.00
7048;DHT22;3565;53.254;10.352;2022-09-09T01:03:24;13.50;1.00
7048;DHT22;3565;53.254;10.352;2022-09-09T01:06:00;13.50;1.00
7048;DHT22;3565;53.254;10.352;2022-09-09T01:11:23;13.50;1.00
7048;DHT22;3565;53.254;10.352;2022-09-09T01:13:56;13.40;1.00
7048;DHT22;3565;53.254;10.352;2022-09-09T01:16:28;13.40;1.00
7048;DHT22;3565;53.254;10.352;2022-09-09T01:18:59;13.30;1.00
7048;DHT22;3565;53.254;10.352;2022-09-09T01:21:34;13.30;1.00
7048;DHT22;3565;53.254;10.352;2022-09-09T01:24:18;13.30;1.00
7048;DHT22;3565;53.254;10.352;2022-09-09T01:26:47;13.30;1.00
7048;DHT22;3565;53.254;10.352;2022-09-09T01:29:20;13.30;1.00
7048;DHT22;3565;53.254;10.352;2022-09-09T01:31:55;13.30;1.00
7048;DHT22;3565;53.254;10.352;2022-09-09T01:34:27;13.30;1.00
7048;DHT22;3565;53.254;10.352;2022-09-09T01:37:01;13.30;1.00
7048;DHT22;3565;53.254;10.352;2022-09-09T01:39:30;13.30;1.00
7048;DHT22;3565;53.254;10.352;2022-09-09T01:41:59;13.30;1.00
7048;DHT22;3565;53.254;10.352;2022-09-09T01:44:29;13.30;1.00
7048;DHT22;3565;53.254;10.352;2022-09-09T01:46:58;13.40;1.00
7048;DHT22;3565;53.254;10.352;2022-09-09T01:49:27;13.30;1.00
7048;DHT22;3565;53.254;10.352;2022-09-09T01:51:57;13.20;1.00
7048;DHT22;3565;53.254;10.352;2022-09-09T01:57:17;13.20;1.00
7048;DHT22;3565;53.254;10.352;2022-09-09T01:59:50;13.20;1.00
7048;DHT22;3565;53.254;10.352;2022-09-09T02:02:23;13.00;1.00
7048;DHT22;3565;53.254;10.352;2022-09-09T02:05:00;13.10;1.00
7048;DHT22;3565;53.254;10.352;2022-09-09T02:12:46;13.00;1.00
7048;DHT22;3565;53.254;10.352;2022-09-09T02:15:20;13.00;1.00
7048;DHT22;3565;53.254;10.352;2022-09-09T02:17:51;13.00;1.00
7048;DHT22;3565;53.254;10.352;2022-09-09T02:20:22;12.90;1.00
7048;DHT22;3565;53.254;10.352;2022-09-09T02:22:54;12.80;1.00
7048;DHT22;3565;53.254;10.352;2022-09-09T02:25:26;12.80;1.00
7048;DHT22;3565;53.254;10.352;2022-09-09T02:27:57;12.80;1.00
7048;DHT22;3565;53.254;10.352;2022-09-09T02:30:28;12.70;1.00
7048;DHT22;3565;53.254;10.352;2022-09-09T02:38:01;12.70;1.00
7048;DHT22;3565;53.254;10.352;2022-09-09T02:50:31;12.60;1.00
7048;DHT22;3565;53.254;10.352;2022-09-09T02:53:06;12.70;1.00
7048;DHT22;3565;53.254;10.352;2022-09-09T02:55:41;12.60;1.00
7048;DHT22;3565;53.254;10.352;2022-09-09T02:58:12;12.70;1.00
7048;DHT22;3565;53.254;10.352;2022-09-09T03:20:37;12.60;1.00
7048;DHT22;3565;53.254;10.352;2022-09-09T03:25:34;12.50;1.00
7048;DHT22;3565;53.254;10.352;2022-09-09T03:35:28;12.50;1.00
7048;DHT22;3565;53.254;10.352;2022-09-09T03:37:59;12.40;1.00
7048;DHT22;3565;53.254;10.352;2022-09-09T03:40:28;12.40;1.00
7048;DHT22;3565;53.254;10.352;2022-09-09T03:42:58;12.50;1.00
7048;DHT22;3565;53.254;10.352;2022-09-09T03:45:27;12.40;1.00
7048;DHT22;3565;53.254;10.352;2022-09-09T03:47:57;12.40;1.00
7048;DHT22;3565;53.254;10.352;2022-09-09T03:50:26;12.40;1.00
7048;DHT22;3565;53.254;10.352;2022-09-09T03:52:55;12.30;1.00
7048;DHT22;3565;53.254;10.352;2022-09-09T04:05:17;12.50;1.00
7048;DHT22;3565;53.254;10.352;2022-09-09T04:07:46;12.50;1.00
7048;DHT22;3565;53.254;10.352;2022-09-09T04:15:12;12.50;1.00
7048;DHT22;3565;53.254;10.352;2022-09-09T04:17:41;12.60;1.00
7048;DHT22;3565;53.254;10.352;2022-09-09T04:20:10;12.60;1.00
7048;DHT22;3565;53.254;10.352;2022-09-09T04:22:39;12.60;1.00
7048;DHT22;3565;53.254;10.352;2022-09-09T04:30:08;12.70;1.00
7048;DHT22;3565;53.254;10.352;2022-09-09T04:35:06;12.70;1.00
7048;DHT22;3565;53.254;10.352;2022-09-09T04:37:35;12.80;1.00
7048;DHT22;3565;53.254;10.352;2022-09-09T04:40:07;12.80;1.00
7048;DHT22;3565;53.254;10.352;2022-09-09T04:45:08;12.90;1.00
7048;DHT22;3565;53.254;10.352;2022-09-09T04:50:08;12.90;1.00
7048;DHT22;3565;53.254;10.352;2022-09-09T04:52:37;13.00;1.00
7048;DHT22;3565;53.254;10.352;2022-09-09T04:57:37;13.00;1.00
7048;DHT22;3565;53.254;10.352;2022-09-09T05:00:11;12.90;1.00
7048;DHT22;3565;53.254;10.352;2022-09-09T05:02:40;12.90;1.00
7048;DHT22;3565;53.254;10.352;2022-09-09T05:05:10;13.00;1.00
7048;DHT22;3565;53.254;10.352;2022-09-09T05:07:39;13.00;1.00
7048;DHT22;3565;53.254;10.352;2022-09-09T05:10:10;13.10;1.00
7048;DHT22;3565;53.254;10.352;2022-09-09T05:12:39;13.10;1.00
7048;DHT22;3565;53.254;10.352;2022-09-09T05:15:09;13.10;1.00
7048;DHT22;3565;53.254;10.352;2022-09-09T05:17:39;13.10;1.00
7048;DHT22;3565;53.254;10.352;2022-09-09T05:20:09;13.10;1.00
7048;DHT22;3565;53.254;10.352;2022-09-09T05:22:39;13.10;1.00
7048;DHT22;3565;53.254;10.352;2022-09-09T05:25:09;13.10;1.00
7048;DHT22;3565;53.254;10.352;2022-09-09T05:27:38;13.20;1.00
7048;DHT22;3565;53.254;10.352;2022-09-09T05:30:09;13.30;1.00
7048;DHT22;3565;53.254;10.352;2022-09-09T05:32:39;13.30;1.00
7048;DHT22;3565;53.254;10.352;2022-09-09T05:35:09;13.40;1.00
7048;DHT22;3565;53.254;10.352;2022-09-09T05:37:38;13.40;1.00
7048;DHT22;3565;53.254;10.352;2022-09-09T05:40:09;13.50;1.00
7048;DHT22;3565;53.254;10.352;2022-09-09T05:42:38;13.60;1.00
7048;DHT22;3565;53.254;10.352;2022-09-09T05:45:09;13.60;1.00
7048;DHT22;3565;53.254;10.352;2022-09-09T05:47:38;13.70;1.00
7048;DHT22;3565;53.254;10.352;2022-09-09T05:50:09;13.70;1.00
7048;DHT22;3565;53.254;10.352;2022-09-09T05:52:38;13.80;1.00
7048;DHT22;3565;53.254;10.352;2022-09-09T05:55:09;13.70;1.00
7048;DHT22;3565;53.254;10.352;2022-09-09T05:57:39;13.70;1.00
7048;DHT22;3565;53.254;10.352;2022-09-09T06:00:13;13.80;1.00
7048;DHT22;3565;53.254;10.352;2022-09-09T06:02:42;13.70;1.00
7048;DHT22;3565;53.254;10.352;2022-09-09T06:05:13;13.70;1.00
7048;DHT22;3565;53.254;10.352;2022-09-09T06:07:43;13.80;1.00
7048;DHT22;3565;53.254;10.352;2022-09-09T06:10:13;13.80;1.00
7048;DHT22;3565;53.254;10.352;2022-09-09T06:12:42;13.80;1.00
7048;DHT22;3565;53.254;10.352;2022-09-09T06:15:11;13.90;1.00
7048;DHT22;3565;53.254;10.352;2022-09-09T06:17:41;13.90;1.00
7048;DHT22;3565;53.254;10.352;2022-09-09T06:20:11;13.90;1.00
7048;DHT22;3565;53.254;10.352;2022-09-09T06:22:41;14.00;1.00
7048;DHT22;3565;53.254;10.352;2022-09-09T06:25:12;14.10;1.00
7048;DHT22;3565;53.254;10.352;2022-09-09T06:27:41;14.10;1.00
7048;DHT22;3565;53.254;10.352;2022-09-09T06:30:12;14.30;1.00
7048;DHT22;3565;53.254;10.352;2022-09-09T06:32:41;14.30;1.00
7048;DHT22;3565;53.254;10.352;2022-09-09T06:35:10;14.40;1.00
7048;DHT22;3565;53.254;10.352;2022-09-09T06:37:45;14.40;1.00
7048;DHT22;3565;53.254;10.352;2022-09-09T06:40:18;14.40;1.00
7048;DHT22;3565;53.254;10.352;2022-09-09T06:42:47;14.60;1.00
7048;DHT22;3565;53.254;10.352;2022-09-09T06:45:16;14.70;1.00
7048;DHT22;3565;53.254;10.352;2022-09-09T06:47:47;14.80;1.00
7048;DHT22;3565;53.254;10.352;2022-09-09T06:50:16;14.90;1.00
7048;DHT22;3565;53.254;10.352;2022-09-09T06:52:47;15.00;1.00
7048;DHT22;3565;53.254;10.352;2022-09-09T06:55:17;15.20;1.00
7048;DHT22;3565;53.254;10.352;2022-09-09T06:57:46;15.30;1.00
7048;DHT22;3565;53.254;10.352;2022-09-09T07:00:17;15.10;99.90
7048;DHT22;3565;53.254;10.352;2022-09-09T07:02:46;15.30;99.90
7048;DHT22;3565;53.254;10.352;2022-09-09T07:05:16;15.40;99.90
7048;DHT22;3565;53.254;10.352;2022-09-09T07:07:46;15.30;99.90
7048;DHT22;3565;53.254;10.352;2022-09-09T07:10:15;15.60;99.90
7048;DHT22;3565;53.254;10.352;2022-09-09T07:12:45;15.90;99.90
7048;DHT22;3565;53.254;10.352;2022-09-09T07:15:15;16.10;99.90
7048;DHT22;3565;53.254;10.352;2022-09-09T07:20:32;16.10;99.90
7048;DHT22;3565;53.254;10.352;2022-09-09T07:23:01;16.20;99.90
7048;DHT22;3565;53.254;10.352;2022-09-09T07:25:30;16.60;99.90
7048;DHT22;3565;53.254;10.352;2022-09-09T07:28:00;16.50;99.90
7048;DHT22;3565;53.254;10.352;2022-09-09T07:30:33;16.80;99.90
7048;DHT22;3565;53.254;10.352;2022-09-09T07:33:02;17.10;99.90
7048;DHT22;3565;53.254;10.352;2022-09-09T07:35:31;17.10;99.90
7048;DHT22;3565;53.254;10.352;2022-09-09T07:38:02;17.10;99.90
7048;DHT22;3565;53.254;10.352;2022-09-09T07:40:33;17.10;99.90
7048;DHT22;3565;53.254;10.352;2022-09-09T07:43:04;16.90;99.90
7048;DHT22;3565;53.254;10.352;2022-09-09T07:48:17;16.90;99.90
7048;DHT22;3565;53.254;10.352;2022-09-09T07:50:46;17.10;99.90
7048;DHT22;3565;53.254;10.352;2022-09-09T07:53:17;17.20;99.90
7048;DHT22;3565;53.254;10.352;2022-09-09T07:55:47;17.30;99.90
7048;DHT22;3565;53.254;10.352;2022-09-09T07:58:16;17.50;99.90
7048;DHT22;3565;53.254;10.352;2022-09-09T08:00:45;17.70;99.90
7048;DHT22;3565;53.254;10.352;2022-09-09T08:03:15;17.70;99.90
7048;DHT22;3565;53.254;10.352;2022-09-09T08:05:44;17.90;99.90
7048;DHT22;3565;53.254;10.352;2022-09-09T08:08:13;17.70;99.90
7048;DHT22;3565;53.254;10.352;2022-09-09T08:10:42;17.70;99.90
7048;DHT22;3565;53.254;10.352;2022-09-09T08:13:12;18.10;99.90
7048;DHT22;3565;53.254;10.352;2022-09-09T08:15:41;18.30;99.90
7048;DHT22;3565;53.254;10.352;2022-09-09T08:18:11;18.80;99.90
7048;DHT22;3565;53.254;10.352;2022-09-09T08:20:40;18.90;99.90
7048;DHT22;3565;53.254;10.352;2022-09-09T08:23:10;18.60;99.90
7048;DHT22;3565;53.254;10.352;2022-09-09T08:25:39;18.70;99.90
7048;DHT22;3565;53.254;10.352;2022-09-09T08:28:09;19.10;99.90
7048;DHT22;3565;53.254;10.352;2022-09-09T08:30:38;19.30;99.90
7048;DHT22;3565;53.254;10.352;2022-09-09T08:33:07;19.50;99.90
7048;DHT22;3565;53.254;10.352;2022-09-09T08:35:37;20.20;99.90
7048;DHT22;3565;53.254;10.352;2022-09-09T08:38:07;19.80;99.90
7048;DHT22;3565;53.254;10.352;2022-09-09T08:40:37;20.00;99.90
7048;DHT22;3565;53.254;10.352;2022-09-09T08:43:08;20.20;99.90
7048;DHT22;3565;53.254;10.352;2022-09-09T08:45:41;19.80;99.90
7048;DHT22;3565;53.254;10.352;2022-09-09T08:48:19;19.90;99.90
7048;DHT22;3565;53.254;10.352;2022-09-09T08:50:50;19.10;99.90
7048;DHT22;3565;53.254;10.352;2022-09-09T08:53:21;19.30;99.90
7048;DHT22;3565;53.254;10.352;2022-09-09T08:55:53;19.30;99.90
7048;DHT22;3565;53.254;10.352;2022-09-09T08:58:25;19.80;99.90
7048;DHT22;3565;53.254;10.352;2022-09-09T09:01:02;20.40;99.90
7048;DHT22;3565;53.254;10.352;2022-09-09T09:03:37;20.70;99.90
7048;DHT22;3565;53.254;10.352;2022-09-09T09:06:13;21.80;99.90
7048;DHT22;3565;53.254;10.352;2022-09-09T09:08:44;22.70;94.10
7048;DHT22;3565;53.254;10.352;2022-09-09T09:11:15;23.20;71.00
7048;DHT22;3565;53.254;10.352;2022-09-09T09:13:48;22.50;90.80
7048;DHT22;3565;53.254;10.352;2022-09-09T09:16:23;22.50;92.20
7048;DHT22;3565;53.254;10.352;2022-09-09T09:21:36;21.50;99.90
7048;DHT22;3565;53.254;10.352;2022-09-09T09:24:12;22.00;99.90
7048;DHT22;3565;53.254;10.352;2022-09-09T09:26:44;21.90;99.90
7048;DHT22;3565;53.254;10.352;2022-09-09T09:29:15;21.20;99.90
7048;DHT22;3565;53.254;10.352;2022-09-09T09:31:47;21.20;99.90
7048;DHT22;3565;53.254;10.352;2022-09-09T09:34:18;21.60;99.90
7048;DHT22;3565;53.254;10.352;2022-09-09T09:36:53;21.10;99.90
7048;DHT22;3565;53.254;10.352;2022-09-09T09:39:27;20.80;99.90
7048;DHT22;3565;53.254;10.352;2022-09-09T09:41:56;20.80;99.90
7048;DHT22;3565;53.254;10.352;2022-09-09T09:44:28;21.10;99.90
7048;DHT22;3565;53.254;10.352;2022-09-09T09:47:08;21.50;99.90
7048;DHT22;3565;53.254;10.352;2022-09-09T09:49:37;21.70;99.90
7048;DHT22;3565;53.254;10.352;2022-09-09T09:52:12;21.60;99.90
7048;DHT22;3565;53.254;10.352;2022-09-09T09:54:43;21.80;99.90
7048;DHT22;3565;53.254;10.352;2022-09-09T09:57:14;21.90;99.90
7048;DHT22;3565;53.254;10.352;2022-09-09T09:59:44;21.50;99.90
7048;DHT22;3565;53.254;10.352;2022-09-09T10:02:20;22.10;99.90
7048;DHT22;3565;53.254;10.352;2022-09-09T10:05:00;22.50;99.90
7048;DHT22;3565;53.254;10.352;2022-09-09T10:07:29;23.00;99.90
7048;DHT22;3565;53.254;10.352;2022-09-09T10:10:00;22.50;92.40
7048;DHT22;3565;53.254;10.352;2022-09-09T10:12:41;22.40;99.90
7048;DHT22;3565;53.254;10.352;2022-09-09T10:15:24;23.10;98.30
7048;DHT22;3565;53.254;10.352;2022-09-09T10:17:58;22.90;98.20
7048;DHT22;3565;53.254;10.352;2022-09-09T10:20:34;21.60;99.90
7048;DHT22;3565;53.254;10.352;2022-09-09T10:23:09;22.30;99.90
7048;DHT22;3565;53.254;10.352;2022-09-09T10:25:50;22.20;99.90
7048;DHT22;3565;53.254;10.352;2022-09-09T10:28:30;22.10;99.50
7048;DHT22;3565;53.254;10.352;2022-09-09T10:31:04;23.00;67.40
7048;DHT22;3565;53.254;10.352;2022-09-09T10:33:37;24.10;50.40
7048;DHT22;3565;53.254;10.352;2022-09-09T10:36:12;25.30;6.10
7048;DHT22;3565;53.254;10.352;2022-09-09T10:38:42;25.60;1.00
7048;DHT22;3565;53.254;10.352;2022-09-09T10:41:16;24.20;23.30
7048;DHT22;3565;53.254;10.352;2022-09-09T10:43:59;25.10;1.00
7048;DHT22;3565;53.254;10.352;2022-09-09T10:49:19;25.30;1.00
7048;DHT22;3565;53.254;10.352;2022-09-09T10:51:52;26.00;1.00
7048;DHT22;3565;53.254;10.352;2022-09-09T10:54:30;27.20;1.00
7048;DHT22;3565;53.254;10.352;2022-09-09T10:57:03;27.50;1.00
7048;DHT22;3565;53.254;10.352;2022-09-09T10:59:36;26.90;1.00
7048;DHT22;3565;53.254;10.352;2022-09-09T11:02:16;27.00;1.00
7048;DHT22;3565;53.254;10.352;2022-09-09T11:04:50;27.00;1.00
7048;DHT22;3565;53.254;10.352;2022-09-09T11:07:29;25.60;1.00
7048;DHT22;3565;53.254;10.352;2022-09-09T11:10:04;24.70;1.00
7048;DHT22;3565;53.254;10.352;2022-09-09T11:12:38;23.70;18.10
7048;DHT22;3565;53.254;10.352;2022-09-09T11:15:20;23.60;14.30
7048;DHT22;3565;53.254;10.352;2022-09-09T11:17:55;23.00;37.10
7048;DHT22;3565;53.254;10.352;2022-09-09T11:20:26;22.60;44.00
7048;DHT22;3565;53.254;10.352;2022-09-09T11:23:02;22.00;74.70
7048;DHT22;3565;53.254;10.352;2022-09-09T11:25:34;21.90;71.70
7048;DHT22;3565;53.254;10.352;2022-09-09T11:28:31;21.90;84.70
7048;DHT22;3565;53.254;10.352;2022-09-09T11:31:27;22.10;79.00
7048;DHT22;3565;53.254;10.352;2022-09-09T11:34:12;20.60;99.90
7048;DHT22;3565;53.254;10.352;2022-09-09T11:37:07;20.50;99.90
7048;DHT22;3565;53.254;10.352;2022-09-09T11:39:50;20.20;99.90
7048;DHT22;3565;53.254;10.352;2022-09-09T11:42:24;20.50;99.90
7048;DHT22;3565;53.254;10.352;2022-09-09T11:44:57;20.60;99.90
7048;DHT22;3565;53.254;10.352;2022-09-09T11:47:30;20.60;99.90
7048;DHT22;3565;53.254;10.352;2022-09-09T11:50:27;20.30;99.90
7048;DHT22;3565;53.254;10.352;2022-09-09T11:53:16;19.80;99.90
7048;DHT22;3565;53.254;10.352;2022-09-09T11:55:47;19.20;99.90
7048;DHT22;3565;53.254;10.352;2022-09-09T11:58:18;19.10;99.90
7048;DHT22;3565;53.254;10.352;2022-09-09T12:00:50;19.40;99.90
7048;DHT22;3565;53.254;10.352;2022-09-09T12:03:40;19.70;99.90
7048;DHT22;3565;53.254;10.352;2022-09-09T12:06:18;19.90;99.90
7048;DHT22;3565;53.254;10.352;2022-09-09T12:08:53;20.20;99.90
7048;DHT22;3565;53.254;10.352;2022-09-09T12:11:28;20.50;99.90
7048;DHT22;3565;53.254;10.352;2022-09-09T12:14:00;21.00;99.90
7048;DHT22;3565;53.254;10.352;2022-09-09T12:16:33;21.00;99.90
7048;DHT22;3565;53.254;10.352;2022-09-09T12:19:14;21.30;99.90
7048;DHT22;3565;53.254;10.352;2022-09-09T12:21:40;21.60;99.90
7048;DHT22;3565;53.254;10.352;2022-09-09T12:24:30;21.90;99.90
7048;DHT22;3565;53.254;10.352;2022-09-09T12:27:05;22.20;99.90
7048;DHT22;3565;53.254;10.352;2022-09-09T12:29:38;22.00;99.90
7048;DHT22;3565;53.254;10.352;2022-09-09T12:32:10;22.30;99.90
7048;DHT22;3565;53.254;10.352;2022-09-09T12:34:43;22.30;99.90
7048;DHT22;3565;53.254;10.352;2022-09-09T12:37:21;21.50;99.90
7048;DHT22;3565;53.254;10.352;2022-09-09T12:39:52;21.50;99.90
7048;DHT22;3565;53.254;10.352;2022-09-09T12:42:23;21.10;99.90
7048;DHT22;3565;53.254;10.352;2022-09-09T12:44:56;21.00;99.90
7048;DHT22;3565;53.254;10.352;2022-09-09T12:47:35;20.90;99.90
7048;DHT22;3565;53.254;10.352;2022-09-09T12:50:10;20.70;99.90
7048;DHT22;3565;53.254;10.352;2022-09-09T12:52:41;21.10;99.90
7048;DHT22;3565;53.254;10.352;2022-09-09T12:55:18;21.30;99.90
7048;DHT22;3565;53.254;10.352;2022-09-09T13:00:31;21.80;99.90
7048;DHT22;3565;53.254;10.352;2022-09-09T13:03:02;22.40;99.90
7048;DHT22;3565;53.254;10.352;2022-09-09T13:08:20;24.50;99.90
7048;DHT22;3565;53.254;10.352;2022-09-09T13:10:52;25.00;48.30
7048;DHT22;3565;53.254;10.352;2022-09-09T13:13:25;26.20;36.10
7048;DHT22;3565;53.254;10.352;2022-09-09T13:15:56;26.80;1.00
7048;DHT22;3565;53.254;10.352;2022-09-09T13:18:29;26.20;1.00
7048;DHT22;3565;53.254;10.352;2022-09-09T13:20:59;26.00;1.00
7048;DHT22;3565;53.254;10.352;2022-09-09T13:26:24;23.90;25.10
7048;DHT22;3565;53.254;10.352;2022-09-09T13:28:54;23.20;61.20
7048;DHT22;3565;53.254;10.352;2022-09-09T13:31:28;22.40;99.90
7048;DHT22;3565;53.254;10.352;2022-09-09T13:34:00;21.70;99.90
7048;DHT22;3565;53.254;10.352;2022-09-09T13:36:33;21.70;99.90
7048;DHT22;3565;53.254;10.352;2022-09-09T13:39:04;21.60;99.90
7048;DHT22;3565;53.254;10.352;2022-09-09T13:41:36;20.90;99.90
7048;DHT22;3565;53.254;10.352;2022-09-09T13:44:16;20.70;99.90
7048;DHT22;3565;53.254;10.352;2022-09-09T13:46:39;20.50;99.90
7048;DHT22;3565;53.254;10.352;2022-09-09T13:54:28;20.10;99.90
7048;DHT22;3565;53.254;10.352;2022-09-09T13:56:59;19.90;99.90
7048;DHT22;3565;53.254;10.352;2022-09-09T13:59:29;20.00;99.90
7048;DHT22;3565;53.254;10.352;2022-09-09T14:04:43;19.50;99.90
7048;DHT22;3565;53.254;10.352;2022-09-09T14:07:13;19.20;99.90
7048;DHT22;3565;53.254;10.352;2022-09-09T14:12:34;18.20;99.90
7048;DHT22;3565;53.254;10.352;2022-09-09T14:15:07;18.00;99.90
7048;DHT22;3565;53.254;10.352;2022-09-09T14:17:38;17.90;99.90
7048;DHT22;3565;53.254;10.352;2022-09-09T14:22:51;17.20;99.90
7048;DHT22;3565;53.254;10.352;2022-09-09T14:25:21;17.00;99.90
7048;DHT22;3565;53.254;10.352;2022-09-09T14:27:50;17.00;99.90
7048;DHT22;3565;53.254;10.352;2022-09-09T14:30:19;16.70;99.90
7048;DHT22;3565;53.254;10.352;2022-09-09T14:32:48;16.50;99.90
7048;DHT22;3565;53.254;10.352;2022-09-09T14:35:18;16.40;99.90
7048;DHT22;3565;53.254;10.352;2022-09-09T14:40:38;16.80;99.90
7048;DHT22;3565;53.254;10.352;2022-09-09T14:43:10;16.70;99.90
7048;DHT22;3565;53.254;10.352;2022-09-09T14:45:40;16.80;99.90
7048;DHT22;3565;53.254;10.352;2022-09-09T14:48:10;16.80;99.90
7048;DHT22;3565;53.254;10.352;2022-09-09T14:50:39;16.80;99.90
7048;DHT22;3565;53.254;10.352;2022-09-09T14:53:11;16.90;99.90
7048;DHT22;3565;53.254;10.352;2022-09-09T14:55:40;16.90;99.90
7048;DHT22;3565;53.254;10.352;2022-09-09T14:58:11;16.90;99.90
7048;DHT22;3565;53.254;10.352;2022-09-09T15:00:41;17.00;99.90
7048;DHT22;3565;53.254;10.352;2022-09-09T15:03:10;17.10;99.90
7048;DHT22;3565;53.254;10.352;2022-09-09T15:05:39;17.10;99.90
7048;DHT22;3565;53.254;10.352;2022-09-09T15:08:08;17.30;99.90
7048;DHT22;3565;53.254;10.352;2022-09-09T15:10:38;17.50;60.20
7048;DHT22;3565;53.254;10.352;2022-09-09T15:13:07;17.60;79.70
7048;DHT22;3565;53.254;10.352;2022-09-09T15:15:36;17.70;1.00
7048;DHT22;3565;53.254;10.352;2022-09-09T15:20:56;17.80;18.90
7048;DHT22;3565;53.254;10.352;2022-09-09T15:23:25;17.90;57.80
7048;DHT22;3565;53.254;10.352;2022-09-09T15:25:57;17.70;29.40
7048;DHT22;3565;53.254;10.352;2022-09-09T15:28:26;18.00;89.60
7048;DHT22;3565;53.254;10.352;2022-09-09T15:30:56;18.20;1.00
7048;DHT22;3565;53.254;10.352;2022-09-09T15:33:25;18.30;18.30
7048;DHT22;3565;53.254;10.352;2022-09-09T15:35:56;18.40;43.70
7048;DHT22;3565;53.254;10.352;2022-09-09T15:38:25;18.20;1.00
7048;DHT22;3565;53.254;10.352;2022-09-09T15:40:55;18.10;4.50
7048;DHT22;3565;53.254;10.352;2022-09-09T15:43:25;18.40;46.10
7048;DHT22;3565;53.254;10.352;2022-09-09T15:46:02;18.70;1.00
7048;DHT22;3565;53.254;10.352;2022-09-09T15:48:30;18.70;1.00
7048;DHT22;3565;53.254;10.352;2022-09-09T15:51:04;18.80;1.00
7048;DHT22;3565;53.254;10.352;2022-09-09T15:53:33;18.40;1.00
7048;DHT22;3565;53.254;10.352;2022-09-09T15:56:02;18.30;1.00
7048;DHT22;3565;53.254;10.352;2022-09-09T15:58:31;18.40;44.50
7048;DHT22;3565;53.254;10.352;2022-09-09T16:01:03;18.60;99.90
7048;DHT22;3565;53.254;10.352;2022-09-09T16:03:35;18.30;99.90
7048;DHT22;3565;53.254;10.352;2022-09-09T16:06:05;18.50;99.90
7048;DHT22;3565;53.254;10.352;2022-09-09T16:08:34;18.60;63.40
7048;DHT22;3565;53.254;10.352;2022-09-09T16:11:09;18.40;1.00
7048;DHT22;3565;53.254;10.352;2022-09-09T16:13:40;18.40;19.00
7048;DHT22;3565;53.254;10.352;2022-09-09T16:16:13;18.30;99.90
7048;DHT22;3565;53.254;10.352;2022-09-09T16:18:44;18.50;99.90
7048;DHT22;3565;53.254;10.352;2022-09-09T16:21:17;18.70;99.90
7048;DHT22;3565;53.254;10.352;2022-09-09T16:23:47;18.90;99.90
7048;DHT22;3565;53.254;10.352;2022-09-09T16:26:18;18.90;99.90
7048;DHT22;3565;53.254;10.352;2022-09-09T16:28:47;19.00;99.90
7048;DHT22;3565;53.254;10.352;2022-09-09T16:31:17;19.10;44.10
7048;DHT22;3565;53.254;10.352;2022-09-09T16:33:52;19.00;1.00
7048;DHT22;3565;53.254;10.352;2022-09-09T16:36:23;19.00;1.00
7048;DHT22;3565;53.254;10.352;2022-09-09T16:38:54;18.60;99.90
7048;DHT22;3565;53.254;10.352;2022-09-09T16:41:26;18.70;99.90
7048;DHT22;3565;53.254;10.352;2022-09-09T16:43:56;18.90;95.80
7048;DHT22;3565;53.254;10.352;2022-09-09T16:46:27;18.80;52.00
7048;DHT22;3565;53.254;10.352;2022-09-09T16:48:58;18.70;99.90
7048;DHT22;3565;53.254;10.352;2022-09-09T16:51:30;18.60;52.40
7048;DHT22;3565;53.254;10.352;2022-09-09T16:54:01;18.40;99.90
7048;DHT22;3565;53.254;10.352;2022-09-09T16:56:31;18.40;99.90
7048;DHT22;3565;53.254;10.352;2022-09-09T16:59:03;18.20;99.90
7048;DHT22;3565;53.254;10.352;2022-09-09T17:01:35;18.30;99.90
7048;DHT22;3565;53.254;10.352;2022-09-09T17:04:06;18.30;99.90
7048;DHT22;3565;53.254;10.352;2022-09-09T17:06:36;18.30;99.90
7048;DHT22;3565;53.254;10.352;2022-09-09T17:09:08;18.30;99.90
7048;DHT22;3565;53.254;10.352;2022-09-09T17:11:38;18.20;99.90
7048;DHT22;3565;53.254;10.352;2022-09-09T17:14:08;18.20;99.90
7048;DHT22;3565;53.254;10.352;2022-09-09T17:16:38;18.10;99.90
7048;DHT22;3565;53.254;10.352;2022-09-09T17:19:09;18.10;99.90
7048;DHT22;3565;53.254;10.352;2022-09-09T17:21:38;17.90;99.90
7048;DHT22;3565;53.254;10.352;2022-09-09T17:24:10;17.90;99.90
7048;DHT22;3565;53.254;10.352;2022-09-09T17:26:40;17.80;99.90
7048;DHT22;3565;53.254;10.352;2022-09-09T17:29:10;17.80;99.90
7048;DHT22;3565;53.254;10.352;2022-09-09T17:31:41;17.70;99.90
7048;DHT22;3565;53.254;10.352;2022-09-09T17:34:11;17.60;99.90
7048;DHT22;3565;53.254;10.352;2022-09-09T17:36:40;17.60;99.90
7048;DHT22;3565;53.254;10.352;2022-09-09T17:39:09;17.50;99.90
7048;DHT22;3565;53.254;10.352;2022-09-09T17:41:39;17.50;99.90
7048;DHT22;3565;53.254;10.352;2022-09-09T17:44:09;17.40;99.90
7048;DHT22;3565;53.254;10.352;2022-09-09T17:46:40;17.30;99.90
7048;DHT22;3565;53.254;10.352;2022-09-09T17:49:11;17.20;99.90
7048;DHT22;3565;53.254;10.352;2022-09-09T17:54:22;17.00;99.90
7048;DHT22;3565;53.254;10.352;2022-09-09T17:56:51;16.90;99.90
7048;DHT22;3565;53.254;10.352;2022-09-09T17:59:20;16.80;99.90
7048;DHT22;3565;53.254;10.352;2022-09-09T18:01:51;16.80;99.90
7048;DHT22;3565;53.254;10.352;2022-09-09T18:04:22;16.80;99.90
7048;DHT22;3565;53.254;10.352;2022-09-09T18:06:52;16.70;99.90
7048;DHT22;3565;53.254;10.352;2022-09-09T18:09:25;16.60;99.90
7048;DHT22;3565;53.254;10.352;2022-09-09T18:11:56;16.60;99.90
7048;DHT22;3565;53.254;10.352;2022-09-09T18:14:28;16.50;99.90
7048;DHT22;3565;53.254;10.352;2022-09-09T18:16:57;16.50;99.90
7048;DHT22;3565;53.254;10.352;2022-09-09T18:22:14;16.30;99.90
7048;DHT22;3565;53.254;10.352;2022-09-09T18:24:43;16.30;1.00
7048;DHT22;3565;53.254;10.352;2022-09-09T18:27:14;16.30;1.00
7048;DHT22;3565;53.254;10.352;2022-09-09T18:29:45;16.30;1.00
7048;DHT22;3565;53.254;10.352;2022-09-09T18:32:15;16.30;99.90
7048;DHT22;3565;53.254;10.352;2022-09-09T18:34:46;16.20;99.90
7048;DHT22;3565;53.254;10.352;2022-09-09T18:37:15;16.20;99.90